Rapports des METAR proches

 

LFAQ - Bray, France
Distance from station: SSO 19km
Mise à jour: 10/08/2022 20:00
Clair
Clair
 Vent NE
Vent: NE 22 km/h
Température: 30°C
Point de rosée: 9°C
Humidité: 27%
Baromètre: 1020 hPa
Résumé: Clair
Visibility: greater than 10 km
2022/08/10 18:00 LFAQ 101800Z AUTO 04012KT CAVOK 30/09 Q1020
LFQQ - Lille/Lesquin, France
Distance from station: NNE 53km
Mise à jour: 10/08/2022 20:00
Clair
Clair
 Vent NE
Vent: NE 19 km/h
Température: 30°C
Point de rosée: 9°C
Humidité: 27%
Baromètre: 1021 hPa
Résumé: Clair
Visibility: greater than 10 km
2022/08/10 18:00 LFQQ 101800Z AUTO 05010KT CAVOK 30/09 Q1021 NOSIG
EBCV - Chievres Ab, Belgium
Distance from station: NE 88km
Mise à jour: 10/08/2022 19:55
Clair
Clair
 Vent NE
Vent: NE 17 km/h
Température: 30°C
Point de rosée: 10°C
Humidité: 29%
Baromètre: 1021 hPa
Clouds: Clair
Visibility: 10 km
2022/08/10 17:55 EBCV 101755Z AUTO 05009KT 9999 NCD 30/10 Q1021 BLU
 
LFOB - Beauvais/Tille(A, France
Distance from station: SSO 88km
Mise à jour: 10/08/2022 20:00
Clair
Clair
 Vent NE
Vent: NE 22 km/h
Température: 31°C
Point de rosée: 8°C
Humidité: 24%
Baromètre: 1019 hPa
Résumé: Clair
Visibility: greater than 10 km
2022/08/10 18:00 LFOB 101800Z AUTO 05012KT CAVOK 31/08 Q1019 NOSIG
LFAT - Le Touquet/P. Pl, France
Distance from station: ONO 93km
Mise à jour: 10/08/2022 20:00
Clair
Clair
 Vent NE
Vent: NE 24 km/h
Température: 27°C
Indice de chaleur: 27°C
Point de rosée: 15°C
Humidité: 48%
Baromètre: 1021 hPa
Résumé: Clair
Visibility: greater than 10 km
2022/08/10 18:00 LFAT 101800Z AUTO 04013KT 020V080 CAVOK 27/15 Q1021 NOSIG
EBFN - Koksijde (bel-Af, Belgium
Distance from station: N 105km
Mise à jour: 10/08/2022 19:55
Clair
Clair
 Vent NNE
Vent: NNE 28 km/h
Température: 23°C
Point de rosée: 16°C
Humidité: 65%
Baromètre: 1022 hPa
Clouds: Clair
Visibility: 10 km
2022/08/10 17:55 EBFN 101755Z AUTO 03015KT 9999 NCD 23/16 Q1022 BLU BLU
 
EBOS - Oostende Airport, Belgium
Distance from station: N 119km
Mise à jour: 10/08/2022 19:50
Clair
Clair
 Vent NE
Vent: NE 28 km/h
Température: 22°C
Point de rosée: 16°C
Humidité: 69%
Baromètre: 1023 hPa
Résumé: Clair
Visibility: greater than 10 km
2022/08/10 17:50 EBOS 101750Z 04015KT CAVOK 22/16 Q1023 NOSIG
EBCI - Charleroi/Gossel, Belgium
Distance from station: ENE 124km
Mise à jour: 10/08/2022 19:50
Clair
Clair
 Vent NE
Vent: NE 22 km/h
Température: 28°C
Point de rosée: 8°C
Humidité: 28%
Baromètre: 1022 hPa
Résumé: Clair
Visibility: greater than 10 km
2022/08/10 17:50 EBCI 101750Z 04012KT CAVOK 28/08 Q1022 NOSIG
LFPG - Charles De Gaull, France
Distance from station: S 125km
Mise à jour: 10/08/2022 20:00
Clair
Clair
 Vent E
Vent: E 22 km/h
Température: 31°C
Point de rosée: 7°C
Humidité: 22%
Baromètre: 1019 hPa
Résumé: Clair
Visibility: greater than 10 km
2022/08/10 18:00 LFPG 101800Z 08012KT CAVOK 31/07 Q1019 NOSIG
 
LFPT - Cormeilles Vexin, France
Distance from station: SSO 127km
Mise à jour: 10/08/2022 20:00
Clair
Clair
 Vent E
Vent: E 19 km/h
Température: 31°C
Point de rosée: 7°C
Humidité: 22%
Baromètre: 1019 hPa
Résumé: Clair
Visibility: greater than 10 km
2022/08/10 18:00 LFPT 101800Z AUTO 09010KT CAVOK 31/07 Q1019
LFPB - Paris/Le Bourget, France
Distance from station: S 132km
Mise à jour: 10/08/2022 20:00
Clair
Clair
 Vent ENE
Vent: ENE 20 km/h
Température: 31°C
Point de rosée: 8°C
Humidité: 24%
Baromètre: 1019 hPa
Résumé: Clair
Visibility: greater than 10 km
2022/08/10 18:00 LFPB 101800Z AUTO 06011KT 030V090 CAVOK 31/08 Q1019 NOSIG
EBFS - Florennes (bel-A, Belgium
Distance from station: E 133km
Mise à jour: 10/08/2022 19:55
Clair
Clair
 Vent NNE
Vent: NNE 22 km/h
Température: 28°C
Point de rosée: 8°C
Humidité: 28%
Baromètre: 1022 hPa
Clouds: Clair
Visibility: 10 km
2022/08/10 17:55 EBFS 101755Z AUTO 03012KT 9999 NCD 28/08 Q1022 BLU
 
LFQA - Reims/Prunay, France
Distance from station: SE 143km
Mise à jour: 10/08/2022 20:00
Clair
Clair
 Vent ENE
Vent: ENE 19 km/h
Température: 30°C
Point de rosée: 8°C
Humidité: 25%
Baromètre: 1019 hPa
Résumé: Clair
Visibility: greater than 10 km
2022/08/10 18:00 LFQA 101800Z AUTO 07010KT CAVOK 30/08 Q1019
LFOP - Rouen/Boos (aut), France
Distance from station: SO 144km
Mise à jour: 10/08/2022 20:00
Clair
Clair
 Vent NE
Vent: NE 17 km/h
Température: 30°C
Point de rosée: 9°C
Humidité: 27%
Baromètre: 1020 hPa
Résumé: Clair
Visibility: greater than 10 km
2022/08/10 18:00 LFOP 101800Z AUTO 05009KT CAVOK 30/09 Q1020 NOSIG
EBBR - Brussels Nationa, Belgium
Distance from station: NE 148km
Mise à jour: 10/08/2022 19:50
Clair
Clair
 Vent NE
Vent: NE 17 km/h
Température: 28°C
Point de rosée: 9°C
Humidité: 30%
Baromètre: 1022 hPa
Résumé: Clair
Visibility: greater than 10 km
2022/08/10 17:50 EBBR 101750Z 05009KT CAVOK 28/09 Q1022 NOSIG
 
EBBE - Beauvechain (baf, Belgium
Distance from station: ENE 156km
Mise à jour: 10/08/2022 19:55
Clair
Clair
 Vent NE
Vent: NE 17 km/h
Température: 28°C
Point de rosée: 10°C
Humidité: 32%
Baromètre: 1022 hPa
Clouds: Clair
Visibility: 10 km
2022/08/10 17:55 EBBE 101755Z AUTO 04009KT 9999 NCD 28/10 Q1022 BLU
EHFS - Vlissingen, Netherlands
Distance from station: NNE 157km
Mise à jour: 10/08/2022 19:55
Clair
Clair
 Vent N
Vent: N 24 km/h
Température: 26°C
Point de rosée: 15°C
Humidité: 51%
Baromètre: 1022 hPa
Clouds: Clair
Visibility: 10 km
2022/08/10 17:55 EHFS 101755Z AUTO 01013KT 340V050 9999 NCD 26/15 Q1022
LFPV - Villacoublay/Vel, France
Distance from station: SSO 157km
Mise à jour: 10/08/2022 20:00
Clair
Clair
 Vent E
Vent: E 17 km/h
Température: 30°C
Point de rosée: 8°C
Humidité: 25%
Baromètre: 1019 hPa
Résumé: Clair
Visibility: greater than 10 km
2022/08/10 18:00 LFPV 101800Z AUTO 09009KT 060V120 CAVOK 30/08 Q1019 NOSIG
 
EGMD - Lydd Airport, United Kingdom
Distance from station: NO 160km
Mise à jour: 10/08/2022 19:50
Clair
Clair
 Vent ENE
Vent: ENE 22 km/h
Température: 25°C
Point de rosée: 16°C
Humidité: 57%
Baromètre: 1023 hPa
Clouds: Clair
Visibility: 10 km
2022/08/10 17:50 EGMD 101750Z AUTO 06012KT 9999 NCD 25/16 Q1023